Time;durP1;ratioP1;P1;durP2;ratioP2;P2;SDS_P1;SDS_P2;PMS_P1;PMS_P2;Temp;Humidity;BMP_temperature;BMP_pressure;BME280_temperature;BME280_humidity;BME280_pressure;Samples;Min_cycle;Max_cycle;Signal;HPM_P1;HPM_P2
2022/10/02 00:01:20;;;;;;;19.17;17.97;;;;;;;;;;5072836;28;20223;-78
2022/10/02 00:03:48;;;;;;;275.97;124.13;;;;;;;;;;5073404;28;20465;-78
2022/10/02 00:06:18;;;;;;;368.73;147.40;;;;;;;;;;5073349;28;20445;-78
2022/10/02 00:08:48;;;;;;;204.87;119.03;;;;;;;;;;5073341;28;20240;-78
2022/10/02 00:11:18;;;;;;;19.57;18.10;;;;;;;;;;5073201;28;20460;-78
2022/10/02 00:13:47;;;;;;;19.63;18.53;;;;;;;;;;5073046;28;20508;-78
2022/10/02 00:16:20;;;;;;;20.53;19.10;;;;;;;;;;5073753;28;20941;-78
2022/10/02 00:18:49;;;;;;;20.90;19.40;;;;;;;;;;5073235;28;20424;-78
2022/10/02 00:21:23;;;;;;;19.40;18.00;;;;;;;;;;5072979;28;20535;-78
2022/10/02 00:23:54;;;;;;;153.43;126.75;;;;;;;;;;5072601;28;20483;-78
2022/10/02 00:26:24;;;;;;;108.73;99.73;;;;;;;;;;5073535;28;20601;-78
2022/10/02 00:28:55;;;;;;;112.57;102.77;;;;;;;;;;5073602;28;20455;-78
2022/10/02 00:31:28;;;;;;;19.40;17.83;;;;;;;;;;5072976;28;20429;-78
2022/10/02 00:34:01;;;;;;;20.33;18.27;;;;;;;;;;5073058;28;20468;-78
2022/10/02 00:36:35;;;;;;;20.37;18.70;;;;;;;;;;5072744;28;20469;-78
2022/10/02 00:39:06;;;;;;;19.50;18.30;;;;;;;;;;5073096;28;20402;-77
2022/10/02 00:41:51;;;;;;;149.17;118.90;;;;;;;;;;5072575;28;20473;-77
2022/10/02 00:44:23;;;;;;;20.60;18.87;;;;;;;;;;5073502;28;20432;-78
2022/10/02 00:46:56;;;;;;;154.37;116.97;;;;;;;;;;5073319;28;20932;-78
2022/10/02 00:49:37;;;;;;;21.20;19.40;;;;;;;;;;5073071;28;20445;-78
2022/10/02 00:52:10;;;;;;;21.87;20.03;;;;;;;;;;5072137;28;20913;-79
2022/10/02 00:54:57;;;;;;;183.35;122.30;;;;;;;;;;5072847;28;20441;-78
2022/10/02 00:57:30;;;;;;;336.55;138.13;;;;;;;;;;5072848;28;20202;-78
2022/10/02 01:00:02;;;;;;;64.13;49.33;;;;;;;;;;5072896;28;20233;-77
2022/10/02 01:02:56;;;;;;;375.25;131.02;;;;;;;;;;5072428;28;20583;-77
2022/10/02 01:05:24;;;;;;;399.85;139.18;;;;;;;;;;5040250;28;20623;-77
2022/10/02 01:07:53;;;;;;;395.92;131.18;;;;;;;;;;5076576;28;20252;-78
2022/10/02 01:10:24;;;;;;;417.98;131.43;;;;;;;;;;5076504;28;20208;-78
2022/10/02 01:12:52;;;;;;;322.42;124.18;;;;;;;;;;5076094;28;20317;-78
2022/10/02 01:15:20;;;;;;;134.80;99.40;;;;;;;;;;5076272;28;20204;-78
2022/10/02 01:17:48;;;;;;;360.30;133.32;;;;;;;;;;5076681;28;20798;-78
2022/10/02 01:20:18;;;;;;;381.23;120.28;;;;;;;;;;5076561;28;20549;-78
2022/10/02 01:22:47;;;;;;;421.45;131.88;;;;;;;;;;5075006;28;20234;-78
2022/10/02 01:25:16;;;;;;;406.77;130.88;;;;;;;;;;5076302;28;20204;-78
2022/10/02 01:27:43;;;;;;;88.17;82.10;;;;;;;;;;5076356;28;20230;-78
2022/10/02 01:30:12;;;;;;;113.60;103.23;;;;;;;;;;5076313;28;20460;-78
2022/10/02 01:32:41;;;;;;;396.20;128.48;;;;;;;;;;5075211;28;20488;-78
2022/10/02 01:35:09;;;;;;;280.70;100.65;;;;;;;;;;5076079;28;20206;-78
2022/10/02 01:37:39;;;;;;;116.93;104.97;;;;;;;;;;5075965;28;20217;-78
2022/10/02 01:40:09;;;;;;;161.17;116.53;;;;;;;;;;5076061;28;20460;-78
2022/10/02 01:42:38;;;;;;;23.87;22.00;;;;;;;;;;5075717;28;20624;-78
2022/10/02 01:45:06;;;;;;;104.60;95.50;;;;;;;;;;5075979;28;20449;-78
2022/10/02 01:47:37;;;;;;;114.80;103.97;;;;;;;;;;5075946;28;20849;-77
2022/10/02 01:50:11;;;;;;;141.00;119.63;;;;;;;;;;5076049;28;20412;-77
2022/10/02 01:52:42;;;;;;;157.07;121.57;;;;;;;;;;5074767;28;20512;-78
2022/10/02 01:55:18;;;;;;;128.30;111.50;;;;;;;;;;5076071;28;20434;-77
2022/10/02 01:57:55;;;;;;;137.55;110.22;;;;;;;;;;5075540;28;20430;-78
2022/10/02 02:00:24;;;;;;;119.37;104.93;;;;;;;;;;5075658;28;20219;-78
2022/10/02 02:02:58;;;;;;;137.18;115.47;;;;;;;;;;5075068;28;20857;-78
2022/10/02 02:05:33;;;;;;;158.53;123.23;;;;;;;;;;5075796;28;20199;-78
2022/10/02 02:08:06;;;;;;;27.03;24.97;;;;;;;;;;5075530;28;20434;-78
2022/10/02 02:10:39;;;;;;;134.67;111.40;;;;;;;;;;5074674;28;20481;-78
2022/10/02 02:13:12;;;;;;;211.95;123.18;;;;;;;;;;5074880;28;20469;-78
2022/10/02 02:15:41;;;;;;;162.23;127.10;;;;;;;;;;5074414;28;20187;-78
2022/10/02 02:18:12;;;;;;;125.73;112.80;;;;;;;;;;5075401;28;20435;-78
2022/10/02 02:20:45;;;;;;;23.70;22.00;;;;;;;;;;5075357;28;20461;-78
2022/10/02 02:23:14;;;;;;;24.37;22.40;;;;;;;;;;5074134;28;21132;-79
2022/10/02 02:25:44;;;;;;;185.38;130.80;;;;;;;;;;5075215;28;20448;-78
2022/10/02 02:28:14;;;;;;;140.43;114.17;;;;;;;;;;5074819;28;20663;-78
2022/10/02 02:30:43;;;;;;;164.33;130.63;;;;;;;;;;5074995;28;20453;-78
2022/10/02 02:33:12;;;;;;;131.13;115.83;;;;;;;;;;5073750;28;20578;-78
2022/10/02 02:35:42;;;;;;;166.07;133.00;;;;;;;;;;5074942;28;20458;-78
2022/10/02 02:38:13;;;;;;;25.17;22.93;;;;;;;;;;5074625;28;20479;-78
2022/10/02 02:40:43;;;;;;;27.77;24.90;;;;;;;;;;5074673;28;20456;-78
2022/10/02 02:43:13;;;;;;;27.07;24.50;;;;;;;;;;5073828;28;20519;-78
2022/10/02 02:45:44;;;;;;;195.77;145.10;;;;;;;;;;5074878;28;20438;-78
2022/10/02 02:48:14;;;;;;;26.80;24.70;;;;;;;;;;5074401;28;20472;-78
2022/10/02 02:50:45;;;;;;;26.10;23.90;;;;;;;;;;5074698;28;20464;-78
2022/10/02 02:53:15;;;;;;;196.60;147.55;;;;;;;;;;5074016;28;20465;-78
2022/10/02 02:55:44;;;;;;;27.43;25.30;;;;;;;;;;5074575;28;20211;-78
2022/10/02 02:58:14;;;;;;;62.97;53.63;;;;;;;;;;5074354;28;20898;-78
2022/10/02 03:00:43;;;;;;;26.93;24.13;;;;;;;;;;5074151;28;20464;-78
2022/10/02 03:03:10;;;;;;;28.43;25.87;;;;;;;;;;5073803;28;20500;-78
2022/10/02 03:05:41;;;;;;;28.50;26.17;;;;;;;;;;5077439;28;20424;-78
2022/10/02 03:08:12;;;;;;;224.83;151.27;;;;;;;;;;5077510;28;20434;-78
2022/10/02 03:10:46;;;;;;;28.00;25.63;;;;;;;;;;5076439;28;20426;-78
2022/10/02 03:13:21;;;;;;;39.53;36.60;;;;;;;;;;5073358;28;20436;-77
2022/10/02 03:15:53;;;;;;;27.83;25.10;;;;;;;;;;5074314;28;20428;-78
2022/10/02 03:18:31;;;;;;;209.25;136.38;;;;;;;;;;5074142;28;20440;-78
2022/10/02 03:21:02;;;;;;;28.30;25.70;;;;;;;;;;5073683;28;20221;-79
2022/10/02 03:23:33;;;;;;;170.03;150.60;;;;;;;;;;5073826;28;20462;-78
2022/10/02 03:26:03;;;;;;;28.73;26.03;;;;;;;;;;5074054;28;20445;-78
2022/10/02 03:28:34;;;;;;;28.40;25.77;;;;;;;;;;5075028;28;20778;-78
2022/10/02 03:31:03;;;;;;;151.50;137.60;;;;;;;;;;5073683;28;20431;-79
2022/10/02 03:33:31;;;;;;;29.93;26.73;;;;;;;;;;5073418;28;20493;-78
2022/10/02 03:35:59;;;;;;;28.47;26.10;;;;;;;;;;5073879;28;20416;-78
2022/10/02 03:38:27;;;;;;;152.17;140.13;;;;;;;;;;5073542;28;20766;-78
2022/10/02 03:40:56;;;;;;;28.00;25.80;;;;;;;;;;5074000;28;20434;-78
2022/10/02 03:43:25;;;;;;;171.67;153.90;;;;;;;;;;5073351;28;20496;-77
2022/10/02 03:45:53;;;;;;;27.93;25.77;;;;;;;;;;5073490;28;20459;-77
2022/10/02 03:48:21;;;;;;;171.37;155.37;;;;;;;;;;5073535;28;20460;-78
2022/10/02 03:50:50;;;;;;;28.73;26.43;;;;;;;;;;5073965;28;20452;-79
2022/10/02 03:53:19;;;;;;;29.90;27.50;;;;;;;;;;5073262;28;20451;-77
2022/10/02 03:55:48;;;;;;;164.30;147.13;;;;;;;;;;5073742;28;20423;-78
2022/10/02 03:58:17;;;;;;;32.93;29.97;;;;;;;;;;5074558;28;20457;-78
2022/10/02 04:00:50;;;;;;;30.20;27.20;;;;;;;;;;5073701;28;20439;-77
2022/10/02 04:03:21;;;;;;;28.27;25.50;;;;;;;;;;5072643;28;20483;-78
2022/10/02 04:05:52;;;;;;;30.47;27.67;;;;;;;;;;5073828;28;20451;-78
2022/10/02 04:08:21;;;;;;;265.90;182.07;;;;;;;;;;5073332;28;20430;-77
2022/10/02 04:10:51;;;;;;;232.67;172.53;;;;;;;;;;5073648;28;20454;-78
2022/10/02 04:13:22;;;;;;;31.73;27.87;;;;;;;;;;5073186;28;20469;-78
2022/10/02 04:15:54;;;;;;;33.03;28.30;;;;;;;;;;5073327;28;20962;-78
2022/10/02 04:18:23;;;;;;;30.70;27.47;;;;;;;;;;5073723;28;20408;-78
2022/10/02 04:20:54;;;;;;;32.67;29.53;;;;;;;;;;5073468;28;20426;-79
2022/10/02 04:23:22;;;;;;;35.30;31.70;;;;;;;;;;5072481;28;20507;-78
2022/10/02 04:25:51;;;;;;;35.70;31.97;;;;;;;;;;5073646;28;20800;-78
2022/10/02 04:28:22;;;;;;;34.73;31.57;;;;;;;;;;5073468;28;20445;-78
2022/10/02 04:30:52;;;;;;;35.30;30.63;;;;;;;;;;5073445;28;20414;-79
2022/10/02 04:33:20;;;;;;;44.03;30.83;;;;;;;;;;5072532;28;20495;-78
2022/10/02 04:35:53;;;;;;;32.47;29.17;;;;;;;;;;5073437;28;20457;-78
2022/10/02 04:38:37;;;;;;;36.67;30.03;;;;;;;;;;5074920;28;20502;-78
2022/10/02 04:41:10;;;;;;;33.43;30.07;;;;;;;;;;5076820;28;20792;-78
2022/10/02 04:43:45;;;;;;;32.60;29.50;;;;;;;;;;5076973;28;20486;-78
2022/10/02 04:46:20;;;;;;;33.87;30.80;;;;;;;;;;5077476;28;20429;-78
2022/10/02 04:48:55;;;;;;;30.83;28.00;;;;;;;;;;5076519;28;20794;-79
2022/10/02 04:51:33;;;;;;;34.47;30.73;;;;;;;;;;5076392;28;20430;-79
2022/10/02 04:54:10;;;;;;;35.17;31.70;;;;;;;;;;5076528;28;20471;-78
2022/10/02 04:56:54;;;;;;;160.35;74.93;;;;;;;;;;5076711;28;20432;-77
2022/10/02 04:59:32;;;;;;;434.50;177.27;;;;;;;;;;5076948;28;20192;-78
2022/10/02 05:02:05;;;;;;;330.10;179.57;;;;;;;;;;5076308;28;20219;-79
2022/10/02 05:04:43;;;;;;;321.83;149.05;;;;;;;;;;5076701;28;20556;-78
2022/10/02 05:07:21;;;;;;;33.43;30.00;;;;;;;;;;5076837;28;20190;-78
2022/10/02 05:09:57;;;;;;;154.37;142.20;;;;;;;;;;5076544;28;20917;-78
2022/10/02 05:12:39;;;;;;;33.43;30.40;;;;;;;;;;5075809;28;20510;-78
2022/10/02 05:15:17;;;;;;;33.53;30.67;;;;;;;;;;5076344;28;20442;-78
2022/10/02 05:17:57;;;;;;;190.17;171.97;;;;;;;;;;5076136;28;20468;-78
2022/10/02 05:20:46;;;;;;;217.00;143.97;;;;;;;;;;5076012;28;20876;-77
2022/10/02 05:23:24;;;;;;;280.97;165.77;;;;;;;;;;5075921;28;20877;-78
2022/10/02 05:26:03;;;;;;;122.97;114.57;;;;;;;;;;5076507;28;20426;-78
2022/10/02 05:28:37;;;;;;;135.23;125.10;;;;;;;;;;5076067;28;20408;-78
2022/10/02 05:31:10;;;;;;;429.95;209.63;;;;;;;;;;5075546;28;20445;-79
2022/10/02 05:33:45;;;;;;;325.83;160.75;;;;;;;;;;5075490;28;20220;-78
2022/10/02 05:36:19;;;;;;;418.27;181.47;;;;;;;;;;5076102;28;20524;-78
2022/10/02 05:39:10;;;;;;;446.70;200.25;;;;;;;;;;5076109;28;20429;-78
2022/10/02 05:41:42;;;;;;;79.43;74.57;;;;;;;;;;5060365;28;20668;-77
2022/10/02 05:44:13;;;;;;;37.70;34.40;;;;;;;;;;5075182;28;20501;-78
2022/10/02 05:46:42;;;;;;;142.00;131.33;;;;;;;;;;5075951;28;20437;-78
2022/10/02 05:49:14;;;;;;;79.40;74.07;;;;;;;;;;5075762;28;20811;-77
2022/10/02 05:51:44;;;;;;;431.50;187.10;;;;;;;;;;5075233;28;20941;-78
2022/10/02 05:54:16;;;;;;;155.63;140.17;;;;;;;;;;5075159;28;20251;-78
2022/10/02 05:56:48;;;;;;;417.85;200.15;;;;;;;;;;5075433;28;20412;-77
2022/10/02 05:59:22;;;;;;;434.25;201.07;;;;;;;;;;5075790;28;20184;-78
2022/10/02 06:01:51;;;;;;;441.92;192.27;;;;;;;;;;5075000;28;20750;-78
2022/10/02 06:04:21;;;;;;;128.07;118.80;;;;;;;;;;5075184;28;20587;-79
2022/10/02 06:06:50;;;;;;;429.30;203.48;;;;;;;;;;5079837;28;20414;-80
2022/10/02 06:09:19;;;;;;;399.83;176.07;;;;;;;;;;5080262;28;20210;-80
2022/10/02 06:11:51;;;;;;;442.00;194.52;;;;;;;;;;5080162;28;20215;-81
2022/10/02 06:14:22;;;;;;;417.38;196.85;;;;;;;;;;5080097;28;20188;-80
2022/10/02 06:16:53;;;;;;;428.83;186.57;;;;;;;;;;5079063;28;20183;-80
2022/10/02 06:19:22;;;;;;;457.67;199.25;;;;;;;;;;5079434;28;20249;-79
2022/10/02 06:21:52;;;;;;;419.40;224.33;;;;;;;;;;5078764;28;20207;-80
2022/10/02 06:24:21;;;;;;;454.80;213.90;;;;;;;;;;5078434;28;20485;-79
2022/10/02 06:26:53;;;;;;;453.90;213.32;;;;;;;;;;5079975;28;20206;-80
2022/10/02 06:29:24;;;;;;;478.08;235.50;;;;;;;;;;5080571;28;20183;-81
2022/10/02 06:31:54;;;;;;;480.25;251.75;;;;;;;;;;5079717;28;20195;-81
2022/10/02 06:34:21;;;;;;;183.53;125.53;;;;;;;;;;5077590;28;20196;-76
2022/10/02 06:36:59;;;;;;;471.52;212.85;;;;;;;;;;5074206;28;20991;-77
2022/10/02 06:39:40;;;;;;;456.77;213.23;;;;;;;;;;5075494;28;20206;-76
2022/10/02 06:42:16;;;;;;;452.80;238.27;;;;;;;;;;5073894;28;20192;-77
2022/10/02 06:44:47;;;;;;;438.95;218.82;;;;;;;;;;5074858;28;20194;-76
2022/10/02 06:47:21;;;;;;;462.42;228.63;;;;;;;;;;5074886;28;20188;-75
2022/10/02 06:49:57;;;;;;;481.15;250.32;;;;;;;;;;5076222;28;20299;-75
2022/10/02 06:52:30;;;;;;;443.35;187.48;;;;;;;;;;5073822;28;20312;-76
2022/10/02 06:55:08;;;;;;;456.33;198.05;;;;;;;;;;5077008;28;20195;-79
2022/10/02 06:57:42;;;;;;;488.33;233.43;;;;;;;;;;5077717;28;20206;-79
2022/10/02 07:00:14;;;;;;;470.50;236.32;;;;;;;;;;5074527;28;20686;-76
2022/10/02 07:03:04;;;;;;;434.05;225.18;;;;;;;;;;5072911;28;20702;-76
2022/10/02 07:05:43;;;;;;;473.63;228.82;;;;;;;;;;5070078;28;20235;-76
2022/10/02 07:08:17;;;;;;;471.13;233.23;;;;;;;;;;5074048;28;20211;-76
2022/10/02 07:10:46;;;;;;;129.03;121.00;;;;;;;;;;5074408;28;20620;-76
2022/10/02 07:13:24;;;;;;;453.45;208.50;;;;;;;;;;5073624;28;20473;-76
2022/10/02 07:16:10;;;;;;;121.15;69.05;;;;;;;;;;5073514;28;20733;-76
2022/10/02 07:18:44;;;;;;;451.67;248.87;;;;;;;;;;5073711;28;20204;-76
2022/10/02 07:21:17;;;;;;;428.17;250.17;;;;;;;;;;5073438;28;20440;-77
2022/10/02 07:23:48;;;;;;;362.52;182.77;;;;;;;;;;5073937;28;20509;-79
2022/10/02 07:26:29;;;;;;;476.98;248.27;;;;;;;;;;5075068;28;20210;-79
2022/10/02 07:29:02;;;;;;;360.70;212.20;;;;;;;;;;5076137;28;20187;-76
2022/10/02 07:31:34;;;;;;;488.30;259.38;;;;;;;;;;5073613;28;20465;-76
2022/10/02 07:34:06;;;;;;;427.67;278.97;;;;;;;;;;5074141;28;20764;-79
2022/10/02 07:36:40;;;;;;;330.40;216.87;;;;;;;;;;5075584;28;20453;-82
2022/10/02 07:39:13;;;;;;;424.30;239.30;;;;;;;;;;5078154;28;20505;-79
2022/10/02 07:41:59;;;;;;;470.08;250.15;;;;;;;;;;5076500;28;20272;-79
2022/10/02 07:44:37;;;;;;;419.80;254.57;;;;;;;;;;5074063;28;20707;-78
2022/10/02 07:47:12;;;;;;;461.70;222.38;;;;;;;;;;5073930;28;20434;-78
2022/10/02 07:49:48;;;;;;;464.50;244.00;;;;;;;;;;5073860;28;20187;-78
2022/10/02 07:52:18;;;;;;;66.97;61.33;;;;;;;;;;5073141;28;20492;-78
2022/10/02 07:54:54;;;;;;;471.63;225.60;;;;;;;;;;5077505;28;21032;-79
2022/10/02 07:57:31;;;;;;;490.75;250.55;;;;;;;;;;5077108;28;20187;-77
2022/10/02 08:00:04;;;;;;;467.45;234.98;;;;;;;;;;5075606;28;20675;-80
2022/10/02 08:02:35;;;;;;;425.27;231.90;;;;;;;;;;5076570;28;20247;-78
2022/10/02 08:05:04;;;;;;;477.90;244.90;;;;;;;;;;5075205;28;20214;-78
2022/10/02 08:07:32;;;;;;;482.27;287.17;;;;;;;;;;5079604;28;20200;-79
2022/10/02 08:10:03;;;;;;;459.40;245.27;;;;;;;;;;5086228;28;20453;-78
2022/10/02 08:12:35;;;;;;;456.42;214.15;;;;;;;;;;5082125;28;20235;-81
2022/10/02 08:15:06;;;;;;;463.60;254.02;;;;;;;;;;5078038;28;20572;-77
2022/10/02 08:17:36;;;;;;;478.80;272.27;;;;;;;;;;5077685;28;20252;-79
2022/10/02 08:20:06;;;;;;;34.00;30.60;;;;;;;;;;5077658;28;20187;-77
2022/10/02 08:22:36;;;;;;;490.02;299.55;;;;;;;;;;5076817;28;20799;-77
2022/10/02 08:25:07;;;;;;;468.42;273.48;;;;;;;;;;5077364;28;20571;-77
2022/10/02 08:27:46;;;;;;;484.63;274.40;;;;;;;;;;5077307;28;20218;-78
2022/10/02 08:30:14;;;;;;;35.23;32.23;;;;;;;;;;5077292;28;20628;-77
2022/10/02 08:32:42;;;;;;;481.50;273.20;;;;;;;;;;5076528;28;20497;-77
2022/10/02 08:35:12;;;;;;;431.77;290.67;;;;;;;;;;5077379;28;20214;-77
2022/10/02 08:37:44;;;;;;;37.07;33.07;;;;;;;;;;5077255;28;20434;-77
2022/10/02 08:40:29;;;;;;;33.27;28.50;;;;;;;;;;5076781;28;20444;-78
2022/10/02 08:43:16;;;;;;;32.37;28.97;;;;;;;;;;5076531;28;20465;-77
2022/10/02 08:45:56;;;;;;;393.73;250.95;;;;;;;;;;5076904;28;20843;-77
2022/10/02 08:48:39;;;;;;;481.98;281.05;;;;;;;;;;5076909;28;20189;-77
2022/10/02 08:51:20;;;;;;;29.77;27.07;;;;;;;;;;5077432;28;20195;-78
2022/10/02 08:54:01;;;;;;;30.30;27.30;;;;;;;;;;5076432;28;20535;-77
2022/10/02 08:56:32;;;;;;;27.33;25.27;;;;;;;;;;5077111;28;20408;-77
2022/10/02 08:59:32;;;;;;;29.53;26.53;;;;;;;;;;5076928;28;20409;-77
2022/10/02 09:02:20;;;;;;;468.67;245.20;;;;;;;;;;5076475;28;20797;-77
2022/10/02 09:05:05;;;;;;;439.83;272.67;;;;;;;;;;5050860;28;20228;-77
2022/10/02 09:07:52;;;;;;;36.20;33.30;;;;;;;;;;5076979;28;20765;-77
2022/10/02 09:10:37;;;;;;;52.03;47.57;;;;;;;;;;5076783;28;20453;-77
2022/10/02 09:13:21;;;;;;;316.77;163.57;;;;;;;;;;5075989;28;20495;-77
2022/10/02 09:15:51;;;;;;;32.83;26.60;;;;;;;;;;5076251;28;20221;-77
2022/10/02 09:18:19;;;;;;;30.63;27.70;;;;;;;;;;5076557;28;20450;-77
2022/10/02 09:21:05;;;;;;;151.17;143.23;;;;;;;;;;5076152;28;20450;-77
2022/10/02 09:23:49;;;;;;;30.13;27.70;;;;;;;;;;5075664;28;20551;-77
2022/10/02 09:26:27;;;;;;;359.10;238.03;;;;;;;;;;5076242;28;20449;-77
2022/10/02 09:29:03;;;;;;;487.75;294.52;;;;;;;;;;5076004;28;20441;-77
2022/10/02 09:31:48;;;;;;;29.03;24.30;;;;;;;;;;5075461;28;20199;-78
2022/10/02 09:34:26;;;;;;;28.47;26.27;;;;;;;;;;5076221;28;20467;-78
2022/10/02 09:37:05;;;;;;;25.63;23.20;;;;;;;;;;5077101;28;20760;-77
2022/10/02 09:39:53;;;;;;;23.37;21.33;;;;;;;;;;5076471;28;20466;-78
2022/10/02 09:42:35;;;;;;;23.33;21.27;;;;;;;;;;5053146;28;20471;-80
2022/10/02 09:45:26;;;;;;;24.93;22.27;;;;;;;;;;5079591;28;20466;-78
2022/10/02 09:48:03;;;;;;;26.07;23.13;;;;;;;;;;5076798;28;20518;-77
2022/10/02 09:50:42;;;;;;;25.47;23.03;;;;;;;;;;5075976;28;20438;-77
2022/10/02 09:53:38;;;;;;;22.90;21.50;;;;;;;;;;5077526;28;20457;-78
2022/10/02 09:56:16;;;;;;;23.40;21.13;;;;;;;;;;5076643;28;20902;-77
2022/10/02 09:59:02;;;;;;;23.83;22.00;;;;;;;;;;5075849;28;20447;-78
2022/10/02 10:01:44;;;;;;;22.60;20.60;;;;;;;;;;5079944;28;20465;-81
2022/10/02 10:04:45;;;;;;;23.40;21.50;;;;;;;;;;5077118;28;20487;-78
2022/10/02 10:07:32;;;;;;;23.03;21.37;;;;;;;;;;5077175;28;20439;-78
2022/10/02 10:10:17;;;;;;;414.63;268.37;;;;;;;;;;5077795;28;20560;-77
2022/10/02 10:12:55;;;;;;;475.23;279.67;;;;;;;;;;5078375;28;20504;-78
2022/10/02 10:15:47;;;;;;;422.20;263.00;;;;;;;;;;5077648;28;20840;-79
2022/10/02 10:18:29;;;;;;;23.37;21.33;;;;;;;;;;5076768;28;20437;-78
2022/10/02 10:21:29;;;;;;;22.97;21.13;;;;;;;;;;5073257;28;20460;-79
2022/10/02 10:24:23;;;;;;;21.77;19.97;;;;;;;;;;5077774;28;20487;-79
2022/10/02 10:27:03;;;;;;;17.97;17.10;;;;;;;;;;5052456;28;20453;-79
2022/10/02 10:29:38;;;;;;;22.07;19.87;;;;;;;;;;5077445;28;20435;-79
2022/10/02 10:32:21;;;;;;;22.30;20.43;;;;;;;;;;5076570;28;20523;-79
2022/10/02 10:35:14;;;;;;;21.03;19.50;;;;;;;;;;5076890;28;20431;-79
2022/10/02 10:40:43;;;;;;;21.27;20.03;;;;;;;;;;5077184;28;20400;-79
2022/10/02 10:43:26;;;;;;;22.57;20.27;;;;;;;;;;5076199;28;20478;-79
2022/10/02 10:46:02;;;;;;;317.90;271.77;;;;;;;;;;5077323;28;20499;-78
2022/10/02 10:48:34;;;;;;;398.57;352.07;;;;;;;;;;5076488;28;20447;-78
2022/10/02 10:51:13;;;;;;;206.20;189.23;;;;;;;;;;5075644;28;20448;-79
2022/10/02 10:54:07;;;;;;;313.00;290.33;;;;;;;;;;5076410;28;20470;-79
2022/10/02 10:56:36;;;;;;;21.33;19.87;;;;;;;;;;5040472;28;20874;-78
2022/10/02 10:59:18;;;;;;;22.87;21.10;;;;;;;;;;5075884;28;20512;-79
2022/10/02 11:01:50;;;;;;;21.10;19.60;;;;;;;;;;5076289;28;20457;-79
2022/10/02 11:04:29;;;;;;;23.03;21.33;;;;;;;;;;5076908;28;20467;-79
2022/10/02 11:07:06;;;;;;;22.07;20.50;;;;;;;;;;5077068;28;20449;-79
2022/10/02 11:09:52;;;;;;;24.43;22.60;;;;;;;;;;5077022;28;20459;-79
2022/10/02 11:12:38;;;;;;;23.67;21.57;;;;;;;;;;5076105;28;21009;-79
2022/10/02 11:15:16;;;;;;;73.90;70.03;;;;;;;;;;5077592;28;20483;-79
2022/10/02 11:17:55;;;;;;;24.90;22.67;;;;;;;;;;5077089;28;20948;-79
2022/10/02 11:20:36;;;;;;;22.40;20.57;;;;;;;;;;5077054;28;20429;-78
2022/10/02 11:23:19;;;;;;;22.37;20.47;;;;;;;;;;5077125;28;20466;-79
2022/10/02 11:25:54;;;;;;;22.47;20.50;;;;;;;;;;5076811;28;20480;-79
2022/10/02 11:28:36;;;;;;;21.10;19.27;;;;;;;;;;5076912;28;20492;-79
2022/10/02 11:31:17;;;;;;;20.00;18.60;;;;;;;;;;5064140;28;20446;-79
2022/10/02 11:33:56;;;;;;;20.57;18.97;;;;;;;;;;5077030;28;20480;-79
2022/10/02 11:36:41;;;;;;;19.37;17.83;;;;;;;;;;5077438;28;20471;-79
2022/10/02 11:39:16;;;;;;;20.13;18.70;;;;;;;;;;5077590;28;20461;-79
2022/10/02 11:42:10;;;;;;;21.37;19.00;;;;;;;;;;5076836;28;20830;-79
2022/10/02 11:44:48;;;;;;;20.47;19.03;;;;;;;;;;5078624;28;20477;-79
2022/10/02 11:47:30;;;;;;;19.43;17.70;;;;;;;;;;5079541;28;20405;-78
2022/10/02 11:50:19;;;;;;;18.63;17.30;;;;;;;;;;5079087;28;20466;-79
2022/10/02 11:53:02;;;;;;;17.80;16.93;;;;;;;;;;5079068;28;20468;-79
2022/10/02 11:55:41;;;;;;;18.20;17.20;;;;;;;;;;5078030;28;20405;-79
2022/10/02 11:58:14;;;;;;;20.17;18.53;;;;;;;;;;5076972;28;20467;-78
2022/10/02 12:00:57;;;;;;;18.17;16.63;;;;;;;;;;5076490;28;20456;-78
2022/10/02 12:03:30;;;;;;;18.07;16.97;;;;;;;;;;5076436;28;20478;-79
2022/10/02 12:06:04;;;;;;;19.73;18.07;;;;;;;;;;5075430;28;20467;-78
2022/10/02 12:08:39;;;;;;;18.93;17.60;;;;;;;;;;5075645;28;20430;-78
2022/10/02 12:11:11;;;;;;;18.07;16.77;;;;;;;;;;5075828;28;20438;-79
2022/10/02 12:13:59;;;;;;;19.90;17.93;;;;;;;;;;5074639;28;20487;-79
2022/10/02 12:16:33;;;;;;;18.53;17.07;;;;;;;;;;5075708;28;20456;-79
2022/10/02 12:19:07;;;;;;;18.70;17.13;;;;;;;;;;5075400;28;20463;-79
2022/10/02 12:27:23;;;;;;;18.00;17.10;;;;;;;;;;5075593;28;20405;-79
2022/10/02 12:29:57;;;;;;;17.90;16.70;;;;;;;;;;5075070;28;20430;-79
2022/10/02 12:32:31;;;;;;;19.37;18.20;;;;;;;;;;5074663;28;20483;-79
2022/10/02 12:35:05;;;;;;;22.63;21.33;;;;;;;;;;5076252;28;20524;-77
2022/10/02 12:37:38;;;;;;;17.50;16.60;;;;;;;;;;5074632;28;20456;-79
2022/10/02 12:40:13;;;;;;;18.27;17.00;;;;;;;;;;5074642;28;20430;-79
2022/10/02 12:42:52;;;;;;;19.67;18.10;;;;;;;;;;5077897;28;20471;-78
2022/10/02 12:45:42;;;;;;;19.07;17.53;;;;;;;;;;5073700;28;20498;-77
2022/10/02 12:48:26;;;;;;;18.57;17.47;;;;;;;;;;5074542;28;20834;-78
2022/10/02 12:51:04;;;;;;;18.63;17.33;;;;;;;;;;5073582;28;20785;-77
2022/10/02 12:53:55;;;;;;;19.77;18.30;;;;;;;;;;5073602;28;20463;-79
2022/10/02 12:56:44;;;;;;;18.20;17.10;;;;;;;;;;5062924;28;20472;-78
2022/10/02 12:59:19;;;;;;;18.03;17.07;;;;;;;;;;5050724;28;20571;-78
2022/10/02 13:02:19;;;;;;;20.20;18.70;;;;;;;;;;5076953;28;20463;-78
2022/10/02 13:05:07;;;;;;;20.23;18.53;;;;;;;;;;5078442;28;20478;-78
2022/10/02 13:08:08;;;;;;;20.50;18.67;;;;;;;;;;5077960;28;20445;-76
2022/10/02 13:10:37;;;;;;;19.73;18.60;;;;;;;;;;5038381;28;20454;-84
2022/10/02 13:13:14;;;;;;;18.93;17.80;;;;;;;;;;5036625;28;20504;-79
2022/10/02 13:15:48;;;;;;;19.83;18.23;;;;;;;;;;5067789;28;20462;-78
2022/10/02 13:18:26;;;;;;;19.60;17.70;;;;;;;;;;5086260;28;20441;-78
2022/10/02 13:21:03;;;;;;;20.13;18.90;;;;;;;;;;5085327;28;20458;-78
2022/10/02 13:23:36;;;;;;;20.47;18.97;;;;;;;;;;5078751;28;20440;-79
2022/10/02 13:26:11;;;;;;;19.10;17.53;;;;;;;;;;5078668;28;20994;-79
2022/10/02 13:28:48;;;;;;;19.40;18.17;;;;;;;;;;5079245;28;20438;-78
2022/10/02 13:31:22;;;;;;;18.20;17.20;;;;;;;;;;5078060;28;20524;-79
2022/10/02 13:34:01;;;;;;;18.70;17.50;;;;;;;;;;5077946;28;20491;-79
2022/10/02 13:36:33;;;;;;;17.97;17.10;;;;;;;;;;5078272;28;20434;-79
2022/10/02 13:39:06;;;;;;;18.50;17.40;;;;;;;;;;5078068;28;20444;-79
2022/10/02 13:41:41;;;;;;;19.23;17.80;;;;;;;;;;5077572;28;20439;-78
2022/10/02 13:44:12;;;;;;;17.40;16.60;;;;;;;;;;5077612;28;20536;-79
2022/10/02 13:46:53;;;;;;;29.90;28.00;;;;;;;;;;5077463;28;20462;-79
2022/10/02 13:49:25;;;;;;;36.50;22.40;;;;;;;;;;5076393;28;20440;-81
2022/10/02 13:51:56;;;;;;;20.43;18.60;;;;;;;;;;5098382;28;20439;-80
2022/10/02 13:54:37;;;;;;;18.83;17.63;;;;;;;;;;5099659;28;20480;-80
2022/10/02 13:57:09;;;;;;;18.70;17.70;;;;;;;;;;5083931;28;20458;-80
2022/10/02 13:59:44;;;;;;;19.93;18.73;;;;;;;;;;5079989;28;20447;-80
2022/10/02 14:02:27;;;;;;;21.17;19.60;;;;;;;;;;5075487;28;20887;-76
2022/10/02 14:04:59;;;;;;;23.77;21.97;;;;;;;;;;5077298;28;20569;-76
2022/10/02 14:07:37;;;;;;;19.33;17.87;;;;;;;;;;5076155;28;20443;-76
2022/10/02 14:10:09;;;;;;;21.63;20.00;;;;;;;;;;5074720;28;20463;-76
2022/10/02 14:12:44;;;;;;;19.60;18.40;;;;;;;;;;5075450;28;20457;-75
2022/10/02 14:15:20;;;;;;;18.50;17.40;;;;;;;;;;5075394;28;20450;-76
2022/10/02 14:17:56;;;;;;;20.83;19.03;;;;;;;;;;5076025;28;20442;-76
2022/10/02 14:20:32;;;;;;;19.17;18.03;;;;;;;;;;5074761;28;20985;-75
2022/10/02 14:23:14;;;;;;;21.40;20.10;;;;;;;;;;5074954;28;20474;-75
2022/10/02 14:25:53;;;;;;;20.57;19.20;;;;;;;;;;5074942;28;20836;-75
2022/10/02 14:28:26;;;;;;;20.90;19.20;;;;;;;;;;5075786;28;20437;-75
2022/10/02 14:31:05;;;;;;;23.23;21.30;;;;;;;;;;5074342;28;20471;-76
2022/10/02 14:33:41;;;;;;;20.90;19.57;;;;;;;;;;5074884;28;20522;-76
2022/10/02 14:36:14;;;;;;;20.77;19.27;;;;;;;;;;5075137;28;20514;-75
2022/10/02 14:38:54;;;;;;;39.23;36.83;;;;;;;;;;5074554;28;20458;-76
2022/10/02 14:41:40;;;;;;;22.17;20.67;;;;;;;;;;5073974;28;20890;-76
2022/10/02 14:44:15;;;;;;;20.90;19.70;;;;;;;;;;5077066;28;20471;-76
2022/10/02 14:46:55;;;;;;;20.17;19.03;;;;;;;;;;5095090;28;20480;-76
2022/10/02 14:49:47;;;;;;;20.30;19.00;;;;;;;;;;5094977;28;20752;-76
2022/10/02 14:52:23;;;;;;;19.97;18.57;;;;;;;;;;5093620;28;20483;-76
2022/10/02 14:54:57;;;;;;;19.90;18.57;;;;;;;;;;5095815;28;20426;-76
2022/10/02 14:57:36;;;;;;;20.50;18.87;;;;;;;;;;5094762;28;20439;-74
2022/10/02 15:00:13;;;;;;;25.23;19.60;;;;;;;;;;5094373;28;20485;-74
2022/10/02 15:02:53;;;;;;;20.87;19.23;;;;;;;;;;5093328;28;20487;-75